Terminal Aerodrome Forecast
Issued by NWS

Home | Current Version | Previous Version | Text Only | Print | Product List | Glossary On
Versions: 1 2 3 4 5 6 7 8 9 10 11 12 13 14 15
764
FTUS44 KEWX 242347
TAFSSF
TAF
KSSF 242347Z 2500/2524 14012KT P6SM SKC
     FM251100 16006KT P6SM OVC012
     FM251600 17010KT P6SM BKN025
     FM251700 16010KT P6SM SCT040=

USA.gov is the U.S. government's official web portal to all federal, state and local government web resources and services.